EGUL - Lakenheath Royal AFB
Distance from station: E 5mi, 14km
Updated: 12/11/2017 12:27pm
Light snow, Mostly cloudy
Light snow, Mostly cloudy
 Wind from NNW
Wind: NNW 12 mph , 19 km/h
Temperature: 34°F , 1°C
Wind Chill: 25°F , -4°C
Dew Point: 34°F , 1°C
Humidity: 100%
Barometer: 29.31 inHg , 992.5 hPa
Summary: Light Snow
Clouds: Mostly Cloudy
Visibility: 6 miles , 9 km
Cloud details: Mostly Cloudy 1300 ft
2017/12/11 20:27 EGUL 112027Z AUTO 33010KT 9000 -SN BKN013 01/01 A2931 RMK AO2 DZB12E14RAB14E19SNB19 BKN V FEW CIG 012 RWY24 SLP929